createdAt,value
2022-11-29T00:01:04.827Z,101438.75
2022-11-29T00:03:33.136Z,101443.50
2022-11-29T00:06:06.271Z,101443.75
2022-11-29T00:08:34.016Z,101443.75
2022-11-29T00:11:06.674Z,101440.84
2022-11-29T00:13:33.704Z,101448.78
2022-11-29T00:16:05.648Z,101446.13
2022-11-29T00:18:33.962Z,101451.41
2022-11-29T00:21:05.453Z,101449.28
2022-11-29T00:23:33.145Z,101446.66
2022-11-29T00:26:06.363Z,101444.00
2022-11-29T00:28:35.048Z,101447.72
2022-11-29T00:31:13.140Z,101458.00
2022-11-29T00:33:40.743Z,101454.31
2022-11-29T00:36:09.051Z,101456.16
2022-11-29T00:38:36.738Z,101455.09
2022-11-29T00:41:06.379Z,101457.50
2022-11-29T00:43:34.357Z,101461.72
2022-11-29T00:46:02.474Z,101460.94
2022-11-29T00:48:30.435Z,101459.34
2022-11-29T00:50:58.136Z,101447.97
2022-11-29T00:53:26.136Z,101456.97
2022-11-29T00:55:53.996Z,101459.84
2022-11-29T00:58:23.627Z,101449.28
2022-11-29T01:00:51.618Z,101451.69
2022-11-29T01:03:19.360Z,101453.25
2022-11-29T01:05:47.229Z,101458.53
2022-11-29T01:08:16.124Z,101452.44
2022-11-29T01:10:43.825Z,101457.72
2022-11-29T01:13:11.824Z,101459.34
2022-11-29T01:15:41.549Z,101465.41
2022-11-29T01:18:09.488Z,101468.06
2022-11-29T01:20:37.115Z,101477.31
2022-11-29T01:23:04.740Z,101466.75
2022-11-29T01:25:32.688Z,101468.31
2022-11-29T01:28:00.357Z,101472.56
2022-11-29T01:30:28.070Z,101474.13
2022-11-29T01:32:57.044Z,101480.47
2022-11-29T01:35:24.680Z,101478.09
2022-11-29T01:37:52.292Z,101485.22
2022-11-29T01:40:20.203Z,101487.59
2022-11-29T01:42:47.856Z,101483.13
2022-11-29T01:45:23.880Z,101487.59
2022-11-29T01:47:56.147Z,101490.25
2022-11-29T01:50:25.679Z,101488.91
2022-11-29T01:52:53.596Z,101487.59
2022-11-29T01:55:21.671Z,101498.41
2022-11-29T01:57:49.763Z,101496.81
2022-11-29T02:00:20.409Z,101498.41
2022-11-29T02:02:52.979Z,101499.44
2022-11-29T02:05:21.301Z,101508.44
2022-11-29T02:07:53.298Z,101509.47
2022-11-29T02:10:22.868Z,101501.03
2022-11-29T02:13:00.599Z,101504.16
2022-11-29T02:15:43.592Z,101501.53
2022-11-29T02:18:14.709Z,101504.97
2022-11-29T02:21:24.123Z,101504.16
2022-11-29T02:24:28.462Z,101497.06
2022-11-29T02:27:27.827Z,101511.59
2022-11-29T02:30:20.547Z,101508.94
2022-11-29T02:33:27.608Z,101515.25
2022-11-29T02:36:32.515Z,101509.97
2022-11-29T02:39:26.258Z,101511.59
2022-11-29T02:42:17.270Z,101514.22
2022-11-29T02:45:04.154Z,101515.53
2022-11-29T02:47:45.444Z,101515.00
2022-11-29T02:50:24.613Z,101521.06
2022-11-29T02:53:02.831Z,101527.94
2022-11-29T02:55:38.420Z,101526.34
2022-11-29T02:58:14.645Z,101530.03
2022-11-29T03:00:51.248Z,101527.94
2022-11-29T03:03:25.209Z,101540.09
2022-11-29T03:06:00.340Z,101542.72
2022-11-29T03:08:38.901Z,101539.56
2022-11-29T03:11:18.533Z,101539.56
2022-11-29T03:13:56.782Z,101541.41
2022-11-29T03:16:39.716Z,101531.63
2022-11-29T03:19:29.616Z,101540.91
2022-11-29T03:22:06.191Z,101545.38
2022-11-29T03:24:41.119Z,101551.69
2022-11-29T03:27:13.884Z,101547.72
2022-11-29T03:29:48.960Z,101552.19
2022-11-29T03:32:23.867Z,101554.53
2022-11-29T03:35:00.727Z,101562.44
2022-11-29T03:37:36.315Z,101560.34
2022-11-29T03:40:07.741Z,101558.78
2022-11-29T03:42:41.703Z,101566.91
2022-11-29T03:45:16.154Z,101568.00
2022-11-29T03:47:50.442Z,101566.16
2022-11-29T03:50:23.659Z,101564.81
2022-11-29T03:52:54.896Z,101568.75
2022-11-29T03:55:47.455Z,101578.78
2022-11-29T03:58:28.026Z,101581.19
2022-11-29T04:01:17.674Z,101584.88
2022-11-29T04:04:20.497Z,101583.28
2022-11-29T04:07:07.020Z,101591.97
2022-11-29T04:09:43.882Z,101589.34
2022-11-29T04:12:55.934Z,101589.34
2022-11-29T04:15:53.873Z,101593.59
2022-11-29T04:18:58.025Z,101594.38
2022-11-29T04:21:40.739Z,101594.63
2022-11-29T04:24:38.612Z,101584.81
2022-11-29T04:27:37.007Z,101599.63
2022-11-29T04:30:14.790Z,101599.63
2022-11-29T04:33:13.635Z,101602.75
2022-11-29T04:35:56.453Z,101601.41
2022-11-29T04:39:06.223Z,101604.31
2022-11-29T04:41:49.860Z,101598.00
2022-11-29T04:44:42.522Z,101609.59
2022-11-29T04:47:28.252Z,101619.13
2022-11-29T04:50:11.085Z,101609.09
2022-11-29T04:52:53.392Z,101611.19
2022-11-29T04:55:36.528Z,101616.97
2022-11-29T04:58:14.214Z,101614.06
2022-11-29T05:00:50.891Z,101619.06
2022-11-29T05:03:27.323Z,101626.44
2022-11-29T05:06:01.571Z,101629.63
2022-11-29T05:08:40.275Z,101630.97
2022-11-29T05:11:18.859Z,101641.25
2022-11-29T05:13:57.303Z,101638.09
2022-11-29T05:16:47.002Z,101646.22
2022-11-29T05:19:42.425Z,101650.75
2022-11-29T05:22:25.795Z,101652.56
2022-11-29T05:24:59.468Z,101650.19
2022-11-29T05:27:39.467Z,101658.59
2022-11-29T05:30:14.018Z,101658.34
2022-11-29T05:32:51.557Z,101662.34
2022-11-29T05:35:53.579Z,101661.78
2022-11-29T05:38:49.139Z,101664.16
2022-11-29T05:41:34.648Z,101664.44
2022-11-29T05:44:11.004Z,101662.88
2022-11-29T05:46:47.664Z,101670.78
2022-11-29T05:49:25.223Z,101668.16
2022-11-29T05:52:06.290Z,101675.03
2022-11-29T05:54:38.319Z,101679.22
2022-11-29T05:57:15.503Z,101685.53
2022-11-29T05:59:45.471Z,101685.28
2022-11-29T06:02:29.362Z,101692.97
2022-11-29T06:05:06.615Z,101700.03
2022-11-29T06:07:45.664Z,101696.34
2022-11-29T06:10:17.740Z,101701.31
2022-11-29T06:12:56.953Z,101702.13
2022-11-29T06:15:47.542Z,101701.84
2022-11-29T06:18:39.330Z,101693.66
2022-11-29T06:21:17.443Z,101696.84
2022-11-29T06:24:02.704Z,101700.03
2022-11-29T06:26:48.255Z,101700.03
2022-11-29T06:29:25.188Z,101707.44
2022-11-29T06:32:01.405Z,101710.09
2022-11-29T06:34:39.060Z,101716.13
2022-11-29T06:37:15.503Z,101707.66
2022-11-29T06:39:45.071Z,101718.97
2022-11-29T06:42:12.697Z,101724.03
2022-11-29T06:44:40.971Z,101726.66
2022-11-29T06:47:11.667Z,101731.41
2022-11-29T06:49:45.467Z,101730.28
2022-11-29T06:52:24.268Z,101735.34
2022-11-29T06:55:04.701Z,101741.16
2022-11-29T06:57:44.355Z,101753.28
2022-11-29T07:00:17.243Z,101749.06
2022-11-29T07:03:08.477Z,101747.97
2022-11-29T07:05:37.083Z,101749.00
2022-11-29T07:08:08.152Z,101757.47
2022-11-29T07:10:40.732Z,101752.19
2022-11-29T07:13:09.116Z,101760.44
2022-11-29T07:15:37.665Z,101771.53
2022-11-29T07:18:18.731Z,101768.34
2022-11-29T07:20:55.550Z,101775.69
2022-11-29T07:23:34.280Z,101781.47
2022-11-29T07:26:15.025Z,101782.72
2022-11-29T07:29:01.327Z,101785.84
2022-11-29T07:31:39.522Z,101794.84
2022-11-29T07:34:15.587Z,101798.00
2022-11-29T07:36:55.418Z,101795.13
2022-11-29T07:39:32.586Z,101803.63
2022-11-29T07:42:10.484Z,101809.91
2022-11-29T07:44:48.091Z,101812.34
2022-11-29T07:47:15.870Z,101813.94
2022-11-29T07:49:43.533Z,101816.81
2022-11-29T07:52:12.597Z,101814.06
2022-11-29T07:54:41.637Z,101815.06
2022-11-29T07:57:10.750Z,101817.69
2022-11-29T07:59:38.368Z,101831.38
2022-11-29T08:02:11.496Z,101824.53
2022-11-29T08:04:42.300Z,101829.47
2022-11-29T08:07:10.073Z,101835.22
2022-11-29T08:09:37.712Z,101837.03
2022-11-29T08:12:05.915Z,101844.13
2022-11-29T08:14:34.812Z,101840.63
2022-11-29T08:17:02.506Z,101841.91
2022-11-29T08:19:30.147Z,101845.81
2022-11-29T08:21:57.844Z,101842.41
2022-11-29T08:24:26.263Z,101849.03
2022-11-29T08:26:54.164Z,101849.03
2022-11-29T08:29:21.857Z,101851.41
2022-11-29T08:31:54.680Z,101848.78
2022-11-29T08:34:24.872Z,101846.69
2022-11-29T08:36:55.434Z,101851.50
2022-11-29T08:39:23.520Z,101847.78
2022-11-29T08:41:51.280Z,101851.22
2022-11-29T08:44:19.245Z,101847.56
2022-11-29T08:47:04.571Z,101848.66
2022-11-29T08:49:33.666Z,101856.09
2022-11-29T08:52:15.245Z,101860.31
2022-11-29T08:54:43.180Z,101857.47
2022-11-29T08:57:38.524Z,101862.22
2022-11-29T08:59:58.697Z,101869.34
2022-11-29T09:02:26.351Z,101872.78
2022-11-29T09:04:55.427Z,101876.75
2022-11-29T09:07:23.140Z,101870.72
2022-11-29T09:09:50.874Z,101873.91
2022-11-29T09:12:18.612Z,101872.63
2022-11-29T09:14:46.494Z,101874.75
2022-11-29T09:17:14.341Z,101871.63
2022-11-29T09:19:41.991Z,101877.72
2022-11-29T09:22:10.991Z,101879.91
2022-11-29T09:24:38.603Z,101882.53
2022-11-29T09:27:06.306Z,101885.41
2022-11-29T09:29:34.167Z,101891.47
2022-11-29T09:32:01.940Z,101881.47
2022-11-29T09:34:29.607Z,101892.09
2022-11-29T09:36:57.328Z,101890.28
2022-11-29T09:39:26.396Z,101902.41
2022-11-29T09:42:23.717Z,101903.75
2022-11-29T09:45:02.360Z,101912.47
2022-11-29T09:47:43.428Z,101906.16
2022-11-29T09:50:24.359Z,101913.34
2022-11-29T09:53:00.581Z,101918.13
2022-11-29T09:55:39.292Z,101920.53
2022-11-29T09:58:13.995Z,101919.78
2022-11-29T10:00:49.466Z,101925.91
2022-11-29T10:03:25.377Z,101926.50
2022-11-29T10:05:58.381Z,101922.25
2022-11-29T10:08:32.524Z,101923.34
2022-11-29T10:11:15.271Z,101931.31
2022-11-29T10:13:46.643Z,101933.97
2022-11-29T10:16:19.912Z,101940.03
2022-11-29T10:18:51.784Z,101943.25
2022-11-29T10:21:25.261Z,101936.34
2022-11-29T10:23:55.993Z,101932.41
2022-11-29T10:26:28.178Z,101923.22
2022-11-29T10:28:58.747Z,101931.19
2022-11-29T10:31:29.984Z,101923.06
2022-11-29T10:34:01.733Z,101925.53
2022-11-29T10:36:41.841Z,101933.47
2022-11-29T10:39:17.115Z,101927.38
2022-11-29T10:41:46.219Z,101932.41
2022-11-29T10:44:15.491Z,101928.00
2022-11-29T10:46:43.212Z,101929.56
2022-11-29T10:49:16.057Z,101931.66
2022-11-29T10:51:44.260Z,101933.75
2022-11-29T10:54:26.792Z,101926.91
2022-11-29T10:56:57.702Z,101932.47
2022-11-29T10:59:26.951Z,101932.25
2022-11-29T11:01:55.075Z,101930.16
2022-11-29T11:04:26.539Z,101930.97
2022-11-29T11:06:56.782Z,101926.22
2022-11-29T11:09:31.139Z,101930.22
2022-11-29T11:12:02.796Z,101932.06
2022-11-29T11:14:33.053Z,101932.38
2022-11-29T11:17:17.169Z,101925.38
2022-11-29T11:19:55.694Z,101926.50
2022-11-29T11:22:25.766Z,101933.41
2022-11-29T11:25:02.194Z,101928.50
2022-11-29T11:27:37.011Z,101926.94
2022-11-29T11:30:06.800Z,101929.66
2022-11-29T11:32:34.477Z,101930.25
2022-11-29T11:35:06.177Z,101939.56
2022-11-29T11:37:35.682Z,101931.91
2022-11-29T11:40:28.984Z,101939.06
2022-11-29T11:43:01.322Z,101933.25
2022-11-29T11:45:34.987Z,101936.22
2022-11-29T11:48:06.674Z,101936.47
2022-11-29T11:50:38.463Z,101937.31
2022-11-29T11:53:08.943Z,101940.53
2022-11-29T11:55:40.300Z,101949.59
2022-11-29T11:58:24.121Z,101946.72
2022-11-29T12:01:09.147Z,101944.94
2022-11-29T12:03:49.208Z,101944.22
2022-11-29T12:06:30.078Z,101952.50
2022-11-29T12:09:04.937Z,101953.06
2022-11-29T12:11:41.942Z,101962.34
2022-11-29T12:14:19.371Z,101953.84
2022-11-29T12:16:49.947Z,101957.28
2022-11-29T12:19:22.380Z,101961.50
2022-11-29T12:21:53.935Z,101962.53
2022-11-29T12:24:26.969Z,101968.88
2022-11-29T12:26:58.230Z,101968.66
2022-11-29T12:29:29.935Z,101976.06
2022-11-29T12:32:09.457Z,101973.69
2022-11-29T12:34:49.055Z,101970.25
2022-11-29T12:37:23.586Z,101970.53
2022-11-29T12:40:00.617Z,101981.69
2022-11-29T12:42:40.979Z,101985.38
2022-11-29T12:45:31.205Z,101980.09
2022-11-29T12:48:06.941Z,101985.41
2022-11-29T12:50:46.336Z,101989.88
2022-11-29T12:53:27.658Z,102002.09
2022-11-29T12:56:05.280Z,102001.28
2022-11-29T12:58:45.652Z,101999.97
2022-11-29T13:01:24.530Z,102001.56
2022-11-29T13:04:00.259Z,102006.28
2022-11-29T13:06:35.627Z,102003.91
2022-11-29T13:09:26.855Z,101998.59
2022-11-29T13:11:59.397Z,101998.59
2022-11-29T13:14:44.102Z,102001.25
2022-11-29T13:17:28.563Z,102002.88
2022-11-29T13:19:59.307Z,102000.78
2022-11-29T13:22:41.259Z,102001.31
2022-11-29T13:25:17.682Z,102004.50
2022-11-29T13:27:58.391Z,102006.88
2022-11-29T13:30:26.628Z,102007.69
2022-11-29T13:33:02.588Z,102000.78
2022-11-29T13:35:37.215Z,102009.03
2022-11-29T13:38:11.535Z,102011.41
2022-11-29T13:40:44.875Z,102018.00
2022-11-29T13:43:20.215Z,102018.56
2022-11-29T13:45:55.119Z,102021.97
2022-11-29T13:48:48.925Z,102022.75
2022-11-29T13:51:26.955Z,102024.56
2022-11-29T13:53:56.459Z,102020.84
2022-11-29T13:56:32.726Z,102014.19
2022-11-29T13:59:01.939Z,102012.88
2022-11-29T14:01:29.959Z,102017.63
2022-11-29T14:04:04.736Z,102013.91
2022-11-29T14:06:34.810Z,102018.69
2022-11-29T14:09:28.471Z,102018.16
2022-11-29T14:12:06.825Z,102015.75
2022-11-29T14:14:41.104Z,102021.03
2022-11-29T14:17:34.936Z,102011.47
2022-11-29T14:20:46.517Z,102017.81
2022-11-29T14:23:16.983Z,102010.38
2022-11-29T14:26:28.325Z,102019.13
2022-11-29T14:28:57.226Z,102014.59
2022-11-29T14:31:51.152Z,102017.25
2022-11-29T14:34:43.277Z,102020.44
2022-11-29T14:37:30.357Z,102016.16
2022-11-29T14:40:00.640Z,102020.09
2022-11-29T14:42:29.438Z,102021.88
2022-11-29T14:45:01.296Z,102026.03
2022-11-29T14:47:32.571Z,102028.09
2022-11-29T14:50:04.067Z,102031.50
2022-11-29T14:52:38.829Z,102030.38
2022-11-29T14:55:29.460Z,102029.28
2022-11-29T14:58:18.832Z,102027.41
2022-11-29T15:01:10.781Z,102026.31
2022-11-29T15:03:45.960Z,102025.47
2022-11-29T15:06:15.812Z,102032.31
2022-11-29T15:08:55.116Z,102026.44
2022-11-29T15:11:50.129Z,102029.28
2022-11-29T15:14:24.908Z,102027.34
2022-11-29T15:17:03.377Z,102029.13
2022-11-29T15:20:19.008Z,102034.59
2022-11-29T15:22:52.179Z,102028.22
2022-11-29T15:25:23.176Z,102038.19
2022-11-29T15:27:52.932Z,102037.59
2022-11-29T15:30:25.017Z,102039.09
2022-11-29T15:32:53.191Z,102039.28
2022-11-29T15:35:20.743Z,102037.09
2022-11-29T15:37:49.838Z,102046.31
2022-11-29T15:40:20.663Z,102042.88
2022-11-29T15:42:53.768Z,102040.97
2022-11-29T15:45:29.880Z,102042.66
2022-11-29T15:48:13.416Z,102054.47
2022-11-29T15:50:46.298Z,102056.47
2022-11-29T15:53:21.165Z,102054.53
2022-11-29T15:55:51.681Z,102052.16
2022-11-29T15:58:21.679Z,102062.72
2022-11-29T16:00:50.468Z,102054.72
2022-11-29T16:03:25.113Z,102061.81
2022-11-29T16:06:01.202Z,102067.59
2022-11-29T16:08:34.362Z,102062.06
2022-11-29T16:11:02.343Z,102060.00
2022-11-29T16:13:35.645Z,102066.88
2022-11-29T16:16:08.407Z,102074.72
2022-11-29T16:18:36.310Z,102072.00
2022-11-29T16:21:05.989Z,102069.38
2022-11-29T16:23:34.969Z,102067.19
2022-11-29T16:26:12.648Z,102075.38
2022-11-29T16:28:45.824Z,102072.72
2022-11-29T16:31:18.211Z,102066.66
2022-11-29T16:33:48.987Z,102073.75
2022-11-29T16:36:20.052Z,102074.56
2022-11-29T16:38:49.719Z,102072.44
2022-11-29T16:41:30.958Z,102088.00
2022-11-29T16:44:03.194Z,102076.41
2022-11-29T16:46:39.031Z,102083.53
2022-11-29T16:49:32.747Z,102074.81
2022-11-29T16:52:00.677Z,102077.75
2022-11-29T16:54:31.940Z,102082.56
2022-11-29T16:56:59.635Z,102081.75
2022-11-29T16:59:28.963Z,102083.03
2022-11-29T17:01:57.039Z,102084.09
2022-11-29T17:04:25.287Z,102081.66
2022-11-29T17:06:53.802Z,102081.44
2022-11-29T17:09:25.411Z,102084.66
2022-11-29T17:11:53.203Z,102083.63
2022-11-29T17:14:20.980Z,102088.91
2022-11-29T17:16:50.385Z,102097.03
2022-11-29T17:19:19.551Z,102093.28
2022-11-29T17:21:47.583Z,102094.88
2022-11-29T17:24:17.860Z,102097.75
2022-11-29T17:26:46.201Z,102095.38
2022-11-29T17:29:15.628Z,102102.22
2022-11-29T17:31:44.810Z,102095.69
2022-11-29T17:34:14.353Z,102097.28
2022-11-29T17:36:42.165Z,102107.59
2022-11-29T17:39:09.986Z,102104.41
2022-11-29T17:41:37.672Z,102105.22
2022-11-29T17:44:05.575Z,102104.16
2022-11-29T17:46:35.284Z,102107.03
2022-11-29T17:49:05.047Z,102112.56
2022-11-29T17:51:52.758Z,102111.41
2022-11-29T17:54:21.269Z,102118.78
2022-11-29T17:56:49.219Z,102110.88
2022-11-29T17:59:16.921Z,102116.16
2022-11-29T18:01:46.934Z,102119.84
2022-11-29T18:04:14.873Z,102121.44
2022-11-29T18:06:43.884Z,102119.84
2022-11-29T18:09:12.848Z,102121.44
2022-11-29T18:11:47.655Z,102128.31
2022-11-29T18:14:18.122Z,102125.44
2022-11-29T18:16:46.409Z,102129.44
2022-11-29T18:19:19.069Z,102132.06
2022-11-29T18:21:48.856Z,102141.03
2022-11-29T18:24:16.737Z,102139.44
2022-11-29T18:26:45.013Z,102140.44
2022-11-29T18:29:12.857Z,102148.63
2022-11-29T18:31:42.958Z,102140.94
2022-11-29T18:34:12.994Z,102142.53
2022-11-29T18:36:43.901Z,102150.44
2022-11-29T18:39:15.065Z,102143.59
2022-11-29T18:41:44.929Z,102146.22
2022-11-29T18:44:14.228Z,102144.63
2022-11-29T18:46:43.822Z,102148.06
2022-11-29T18:49:13.433Z,102149.91
2022-11-29T18:51:42.985Z,102157.81
2022-11-29T18:54:11.306Z,102153.59
2022-11-29T18:56:40.601Z,102153.59
2022-11-29T18:59:10.875Z,102148.53
2022-11-29T19:01:42.586Z,102154.88
2022-11-29T19:04:13.023Z,102157.25
2022-11-29T19:06:41.256Z,102161.72
2022-11-29T19:09:09.720Z,102161.72
2022-11-29T19:11:37.464Z,102162.53
2022-11-29T19:14:11.207Z,102167.00
2022-11-29T19:16:40.202Z,102167.00
2022-11-29T19:19:08.198Z,102156.44
2022-11-29T19:21:36.193Z,102167.00
2022-11-29T19:24:06.900Z,102165.97
2022-11-29T19:26:35.983Z,102164.16
2022-11-29T19:29:03.669Z,102169.44
2022-11-29T19:31:32.721Z,102166.78
2022-11-29T19:34:00.409Z,102171.00
2022-11-29T19:36:29.476Z,102168.16
2022-11-29T19:38:57.442Z,102173.44
2022-11-29T19:41:27.800Z,102168.16
2022-11-29T19:43:57.372Z,102169.97
2022-11-29T19:46:26.879Z,102176.84
2022-11-29T19:48:57.161Z,102173.19
2022-11-29T19:51:26.695Z,102174.75
2022-11-29T19:53:55.872Z,102176.63
2022-11-29T19:56:24.068Z,102168.47
2022-11-29T19:58:51.812Z,102172.13
2022-11-29T20:01:22.472Z,102176.13
2022-11-29T20:03:50.820Z,102182.47
2022-11-29T20:06:20.255Z,102180.84
2022-11-29T20:08:48.268Z,102187.75
2022-11-29T20:11:17.647Z,102187.50
2022-11-29T20:13:47.415Z,102191.97
2022-11-29T20:16:17.161Z,102190.38
2022-11-29T20:18:50.679Z,102193.81
2022-11-29T20:21:22.557Z,102194.84
2022-11-29T20:23:50.308Z,102191.97
2022-11-29T20:26:19.952Z,102198.28
2022-11-29T20:28:48.276Z,102195.66
2022-11-29T20:31:18.090Z,102200.13
2022-11-29T20:33:47.435Z,102199.09
2022-11-29T20:36:29.841Z,102197.25
2022-11-29T20:39:06.299Z,102196.47
2022-11-29T20:41:41.393Z,102202.31
2022-11-29T20:44:14.192Z,102197.03
2022-11-29T20:46:42.232Z,102192.53
2022-11-29T20:49:10.536Z,102195.16
2022-11-29T20:51:45.373Z,102197.03
2022-11-29T20:54:13.213Z,102206.53
2022-11-29T20:56:40.868Z,102202.06
2022-11-29T20:59:08.528Z,102215.50
2022-11-29T21:01:36.294Z,102212.84
2022-11-29T21:04:04.098Z,102218.13
2022-11-29T21:06:34.316Z,102217.09
2022-11-29T21:09:03.341Z,102211.81
2022-11-29T21:11:31.441Z,102209.16
2022-11-29T21:14:03.496Z,102215.81
2022-11-29T21:16:32.317Z,102220.28
2022-11-29T21:19:03.687Z,102224.28
2022-11-29T21:21:38.428Z,102230.38
2022-11-29T21:24:18.306Z,102224.84
2022-11-29T21:26:50.983Z,102231.50
2022-11-29T21:29:21.289Z,102229.91
2022-11-29T21:31:51.756Z,102235.19
2022-11-29T21:34:19.581Z,102233.66
2022-11-29T21:36:53.914Z,102237.09
2022-11-29T21:39:23.926Z,102239.50
2022-11-29T21:41:51.672Z,102237.41
2022-11-29T21:44:19.377Z,102236.38
2022-11-29T21:46:47.022Z,102239.84
2022-11-29T21:49:14.659Z,102239.59
2022-11-29T21:51:42.729Z,102247.50
2022-11-29T21:54:10.361Z,102243.84
2022-11-29T21:56:39.365Z,102249.13
2022-11-29T21:59:06.986Z,102244.63
2022-11-29T22:01:34.819Z,102247.03
2022-11-29T22:04:02.536Z,102246.56
2022-11-29T22:06:30.363Z,102247.59
2022-11-29T22:08:59.831Z,102256.53
2022-11-29T22:11:34.386Z,102254.50
2022-11-29T22:14:15.012Z,102252.41
2022-11-29T22:16:44.386Z,102250.56
2022-11-29T22:19:13.267Z,102249.78
2022-11-29T22:21:41.392Z,102256.88
2022-11-29T22:24:09.264Z,102256.09
2022-11-29T22:26:37.562Z,102247.13
2022-11-29T22:29:10.169Z,102251.34
2022-11-29T22:31:38.205Z,102252.97
2022-11-29T22:34:05.941Z,102256.88
2022-11-29T22:36:35.350Z,102258.47
2022-11-29T22:39:03.520Z,102259.78
2022-11-29T22:41:31.940Z,102264.25
2022-11-29T22:43:59.594Z,102267.91
2022-11-29T22:46:29.320Z,102264.16
2022-11-29T22:49:00.395Z,102266.56
2022-11-29T22:51:30.404Z,102265.75
2022-11-29T22:53:59.843Z,102268.63
2022-11-29T22:56:29.681Z,102267.03
2022-11-29T22:58:57.480Z,102268.88
2022-11-29T23:01:26.671Z,102277.81
2022-11-29T23:03:58.052Z,102278.63
2022-11-29T23:06:27.772Z,102275.19
2022-11-29T23:08:56.739Z,102281.28
2022-11-29T23:11:26.749Z,102279.66
2022-11-29T23:13:54.724Z,102279.09
2022-11-29T23:16:24.463Z,102281.53
2022-11-29T23:18:52.703Z,102282.28
2022-11-29T23:21:23.300Z,102276.00
2022-11-29T23:23:56.108Z,102287.34
2022-11-29T23:26:26.512Z,102277.59
2022-11-29T23:28:55.035Z,102282.63
2022-11-29T23:31:24.191Z,102287.66
2022-11-29T23:33:52.283Z,102287.66
2022-11-29T23:36:21.581Z,102286.09
2022-11-29T23:38:49.823Z,102277.13
2022-11-29T23:41:18.343Z,102283.44
2022-11-29T23:43:46.066Z,102285.28
2022-11-29T23:46:16.291Z,102281.03
2022-11-29T23:48:44.562Z,102290.22
2022-11-29T23:51:12.644Z,102295.03
2022-11-29T23:53:42.499Z,102287.34
2022-11-29T23:56:13.745Z,102285.53
2022-11-29T23:58:42.106Z,102287.09
